Time;durP1;ratioP1;P1;durP2;ratioP2;P2;SDS_P1;SDS_P2;PMS_P1;PMS_P2;Temp;Humidity;BMP_temperature;BMP_pressure;BME280_temperature;BME280_humidity;BME280_pressure;Samples;Min_cycle;Max_cycle;Signal;HPM_P1;HPM_P2
2023/01/02 00:01:06;;;;;;;24.95;7.90;;;;;;;10.33;100.00;100909.25;5046708;28;20036;-40
2023/01/02 00:03:31;;;;;;;28.73;8.52;;;;;;;10.34;100.00;100904.69;5030840;28;20025;-40
2023/01/02 00:05:56;;;;;;;23.48;8.18;;;;;;;10.33;100.00;100897.66;5030313;28;20098;-40
2023/01/02 00:08:22;;;;;;;13.63;7.35;;;;;;;10.36;100.00;100891.09;5029688;28;20112;-40
2023/01/02 00:10:47;;;;;;;21.88;8.02;;;;;;;10.37;100.00;100882.81;5029879;28;20712;-40
2023/01/02 00:13:13;;;;;;;20.50;7.40;;;;;;;10.39;100.00;100888.03;5046314;28;20040;-41
2023/01/02 00:15:38;;;;;;;29.08;9.25;;;;;;;10.42;100.00;100880.41;5030988;28;20040;-40
2023/01/02 00:18:03;;;;;;;17.42;6.95;;;;;;;10.44;100.00;100882.94;5036983;28;20032;-40
2023/01/02 00:20:29;;;;;;;18.17;7.28;;;;;;;10.45;100.00;100876.53;5046984;28;20032;-40
2023/01/02 00:22:54;;;;;;;22.42;7.55;;;;;;;10.46;100.00;100887.13;5040144;28;20032;-39
2023/01/02 00:25:19;;;;;;;28.23;7.32;;;;;;;10.46;100.00;100883.63;5049354;28;20056;-38
2023/01/02 00:27:45;;;;;;;21.75;7.40;;;;;;;10.46;100.00;100880.91;5043598;28;20048;-39
2023/01/02 00:30:11;;;;;;;17.52;7.00;;;;;;;10.47;100.00;100880.72;5045830;28;20029;-38
2023/01/02 00:32:36;;;;;;;19.92;7.22;;;;;;;10.45;100.00;100868.47;5042454;28;20053;-37
2023/01/02 00:35:01;;;;;;;23.58;7.50;;;;;;;10.47;100.00;100878.03;5031894;28;20436;-39
2023/01/02 00:37:27;;;;;;;23.25;7.70;;;;;;;10.46;100.00;100883.63;5031055;28;20443;-40
2023/01/02 00:39:52;;;;;;;15.63;7.50;;;;;;;10.44;100.00;100882.94;5049214;28;20426;-40
2023/01/02 00:42:17;;;;;;;22.42;8.38;;;;;;;10.44;100.00;100880.25;5046192;28;20017;-39
2023/01/02 00:44:43;;;;;;;22.60;9.32;;;;;;;10.44;100.00;100882.94;5049212;28;20044;-39
2023/01/02 00:47:08;;;;;;;21.30;8.48;;;;;;;10.44;100.00;100882.94;5046848;28;20232;-40
2023/01/02 00:49:33;;;;;;;26.00;7.95;;;;;;;10.43;100.00;100874.03;5033272;28;20087;-40
2023/01/02 00:51:59;;;;;;;19.88;8.93;;;;;;;10.44;100.00;100878.41;5040898;28;20476;-39
2023/01/02 00:54:24;;;;;;;29.40;9.68;;;;;;;10.46;100.00;100880.91;5043816;28;20041;-40
2023/01/02 00:56:49;;;;;;;28.60;9.35;;;;;;;10.46;100.00;100875.53;5048908;28;20364;-40
2023/01/02 00:59:15;;;;;;;25.42;9.02;;;;;;;10.47;100.00;100877.19;5033122;28;20029;-39
2023/01/02 01:01:40;;;;;;;16.38;9.02;;;;;;;10.45;100.00;100876.53;5031117;28;20032;-40
2023/01/02 01:04:05;;;;;;;19.92;8.18;;;;;;;10.43;100.00;100871.34;5045766;28;20064;-40
2023/01/02 01:06:32;;;;;;;15.30;8.05;;;;;;;10.43;100.00;100859.75;5052969;28;20029;-40
2023/01/02 01:08:58;;;;;;;39.22;9.98;;;;;;;10.43;100.00;100859.75;5035721;28;20067;-40
2023/01/02 01:11:23;;;;;;;17.85;8.75;;;;;;;10.40;100.00;100854.72;5032324;28;20049;-39
2023/01/02 01:13:50;;;;;;;26.90;9.38;;;;;;;10.38;100.00;100856.78;5033561;28;20117;-37
2023/01/02 01:16:18;;;;;;;33.40;10.07;;;;;;;10.38;100.00;100852.22;5032631;28;20033;-40
2023/01/02 01:18:43;;;;;;;25.80;9.18;;;;;;;10.35;100.00;100843.66;5046609;28;20025;-40
2023/01/02 01:21:17;;;;;;;21.20;9.65;;;;;;;10.36;100.00;100848.03;5051591;28;20392;-37
2023/01/02 01:23:43;;;;;;;25.15;9.85;;;;;;;10.35;100.00;100849.03;5033186;28;20065;-39
2023/01/02 01:26:12;;;;;;;27.05;9.25;;;;;;;10.36;100.00;100850.72;5042290;28;20085;-38
2023/01/02 01:28:38;;;;;;;19.67;9.30;;;;;;;10.37;100.00;100849.69;5042186;28;20464;-39
2023/01/02 01:31:05;;;;;;;23.85;10.27;;;;;;;10.37;100.00;100853.22;5051707;28;20045;-40
2023/01/02 01:33:31;;;;;;;22.53;9.53;;;;;;;10.39;100.00;100844.97;5038470;28;20024;-40
2023/01/02 01:36:04;;;;;;;23.42;9.70;;;;;;;10.39;100.00;100842.28;5052062;28;20066;-39
2023/01/02 01:38:31;;;;;;;24.77;10.05;;;;;;;10.38;100.00;100852.22;5051398;28;20370;-38
2023/01/02 01:40:56;;;;;;;26.77;10.35;;;;;;;10.38;100.00;100857.59;5052081;28;20116;-37
2023/01/02 01:43:51;;;;;;;24.08;10.10;;;;;;;10.39;100.00;100866.50;5048868;28;20171;-38
2023/01/02 01:46:27;;;;;;;21.73;9.40;;;;;;;10.41;100.00;100861.78;5052344;28;20029;-36
2023/01/02 01:49:14;;;;;;;30.23;10.10;;;;;;;10.42;100.00;100850.81;5058206;28;20042;-39
2023/01/02 01:51:48;;;;;;;24.33;10.07;;;;;;;10.46;100.00;100859.41;5031662;28;20112;-39
2023/01/02 01:54:18;;;;;;;19.67;8.90;;;;;;;10.44;100.00;100853.34;5050447;28;20025;-38
2023/01/02 01:56:47;;;;;;;32.42;9.82;;;;;;;10.46;100.00;100859.41;5033243;28;20033;-40
2023/01/02 01:59:12;;;;;;;28.80;9.63;;;;;;;10.48;100.00;100868.13;5050328;28;20033;-40
2023/01/02 02:01:39;;;;;;;25.55;10.68;;;;;;;10.47;100.00;100864.56;5048045;28;20027;-39
2023/01/02 02:04:04;;;;;;;29.58;10.48;;;;;;;10.46;100.00;100870.16;5030960;28;20404;-40
2023/01/02 02:06:30;;;;;;;22.15;11.20;;;;;;;10.45;100.00;100865.78;5031678;28;20025;-43
2023/01/02 02:09:03;;;;;;;31.58;11.10;;;;;;;10.42;100.00;100879.59;5050689;28;20036;-43
2023/01/02 02:11:29;;;;;;;26.77;11.30;;;;;;;10.40;100.00;100870.84;5050194;28;20369;-43
2023/01/02 02:13:57;;;;;;;27.65;11.95;;;;;;;10.39;100.00;100877.25;5038701;28;20369;-43
2023/01/02 02:16:26;;;;;;;26.58;12.63;;;;;;;10.36;100.00;100891.91;5050407;28;20029;-43
2023/01/02 02:19:10;;;;;;;27.25;12.75;;;;;;;10.35;100.00;100892.94;5046988;28;20036;-43
2023/01/02 02:21:54;;;;;;;25.13;13.80;;;;;;;10.31;100.00;100884.38;5032941;28;20072;-43
2023/01/02 02:24:40;;;;;;;29.27;13.60;;;;;;;10.30;100.00;100871.94;5031405;28;20500;-43
2023/01/02 02:27:24;;;;;;;31.92;14.13;;;;;;;10.30;100.00;100877.34;5035272;28;20431;-42
2023/01/02 02:29:58;;;;;;;29.42;14.40;;;;;;;10.31;100.00;100875.47;5045822;28;20032;-42
2023/01/02 02:33:02;;;;;;;30.13;15.32;;;;;;;10.29;100.00;100874.81;5042446;28;20095;-42
2023/01/02 02:35:33;;;;;;;30.02;14.43;;;;;;;10.33;100.00;100876.13;5038941;28;20021;-42
2023/01/02 02:38:05;;;;;;;32.47;15.57;;;;;;;10.30;100.00;100871.94;5033625;28;20032;-41
2023/01/02 02:41:01;;;;;;;33.90;15.88;;;;;;;10.32;100.00;100869.06;5032274;28;20032;-42
2023/01/02 02:43:45;;;;;;;31.88;16.50;;;;;;;10.32;100.00;100872.63;5041369;28;20474;-41
2023/01/02 02:46:48;;;;;;;28.98;15.75;;;;;;;10.30;100.00;100866.56;5043459;28;20056;-40
2023/01/02 02:49:13;;;;;;;37.42;17.08;;;;;;;10.30;100.00;100861.19;5032198;28;20025;-41
2023/01/02 02:51:56;;;;;;;37.03;17.38;;;;;;;10.31;100.00;100867.41;5051089;28;20025;-40
2023/01/02 02:54:22;;;;;;;35.55;17.20;;;;;;;10.28;100.00;100862.38;5029299;28;20029;-39
2023/01/02 02:56:49;;;;;;;31.10;17.33;;;;;;;10.28;100.00;100862.38;5029902;28;20064;-40
2023/01/02 02:59:15;;;;;;;40.17;17.60;;;;;;;10.24;100.00;100861.03;5034788;28;20052;-39
2023/01/02 03:01:40;;;;;;;30.13;17.02;;;;;;;10.25;100.00;100850.09;5029425;28;20819;-36
2023/01/02 03:04:17;;;;;;;42.75;17.52;;;;;;;10.23;100.00;100860.19;5047386;28;20071;-38
2023/01/02 03:07:01;;;;;;;33.95;17.33;;;;;;;10.24;100.00;100861.03;5051013;28;20040;-39
2023/01/02 03:09:44;;;;;;;39.05;17.30;;;;;;;10.22;100.00;100863.91;5046230;28;20036;-39
2023/01/02 03:12:24;;;;;;;44.08;18.00;;;;;;;10.22;100.00;100868.47;5040474;28;20037;-38
2023/01/02 03:15:03;;;;;;;37.03;17.13;;;;;;;10.21;100.00;100854.16;5030680;28;20018;-38
2023/01/02 03:18:19;;;;;;;33.15;17.52;;;;;;;10.20;100.00;100854.34;5029126;28;20124;-39
2023/01/02 03:20:49;;;;;;;36.85;17.63;;;;;;;10.23;100.00;100852.13;5020139;28;20377;-39
2023/01/02 03:23:25;;;;;;;42.92;18.27;;;;;;;10.24;100.00;100851.13;5033921;28;20029;-38
2023/01/02 03:25:51;;;;;;;43.88;17.20;;;;;;;10.25;100.00;100863.56;5030916;28;20029;-38
2023/01/02 03:28:18;;;;;;;45.58;18.38;;;;;;;10.27;100.00;100860.69;5023981;28;20186;-39
2023/01/02 03:30:44;;;;;;;29.25;16.27;;;;;;;10.26;100.00;100862.53;5029685;28;20362;-39
2023/01/02 03:33:15;;;;;;;46.75;17.00;;;;;;;10.29;100.00;100862.22;5042118;28;20567;-39
2023/01/02 03:35:44;;;;;;;35.55;16.35;;;;;;;10.32;100.00;100869.94;5048811;28;20116;-37
2023/01/02 03:38:15;;;;;;;45.60;16.10;;;;;;;10.33;100.00;100871.59;5048992;28;20120;-39
2023/01/02 03:40:44;;;;;;;40.10;15.98;;;;;;;10.37;100.00;100876.59;5047494;28;20098;-38
2023/01/02 03:43:20;;;;;;;32.58;15.60;;;;;;;10.38;100.00;100876.44;5034231;28;20124;-40
2023/01/02 03:46:14;;;;;;;40.35;16.38;;;;;;;10.39;100.00;100880.78;5034971;28;20091;-39
2023/01/02 03:48:41;;;;;;;40.80;17.67;;;;;;;10.39;100.00;100879.97;5034316;28;20444;-40
2023/01/02 03:51:06;;;;;;;39.03;16.52;;;;;;;10.41;100.00;100884.16;5029141;28;20030;-39
2023/01/02 03:53:33;;;;;;;29.20;17.20;;;;;;;10.43;100.00;100876.72;5028202;28;20095;-40
2023/01/02 03:56:20;;;;;;;38.97;16.90;;;;;;;10.45;100.00;100896.22;5033312;28;20030;-39
2023/01/02 03:58:56;;;;;;;30.00;17.25;;;;;;;10.46;100.00;100889.00;5048657;28;20117;-41
2023/01/02 04:01:44;;;;;;;33.95;16.67;;;;;;;10.46;100.00;100899.75;5048114;28;20029;-42
2023/01/02 04:04:38;;;;;;;32.60;16.13;;;;;;;10.46;100.00;100897.06;5028451;28;20029;-44
2023/01/02 04:07:09;;;;;;;32.13;16.23;;;;;;;10.45;100.00;100909.69;5020206;28;20052;-44
2023/01/02 04:09:35;;;;;;;21.23;11.73;;;;;;;10.39;100.00;100917.63;5044881;28;20132;-43
2023/01/02 04:12:07;;;;;;;11.23;8.30;;;;;;;10.11;100.00;100923.50;5037278;28;20104;-42
2023/01/02 04:14:54;;;;;;;12.02;7.53;;;;;;;9.94;100.00;100929.97;5027993;28;20107;-42
2023/01/02 04:17:21;;;;;;;9.07;6.57;;;;;;;9.76;100.00;100928.34;5028067;28;20472;-41
2023/01/02 04:19:51;;;;;;;10.38;6.50;;;;;;;9.65;100.00;100932.25;5028213;28;20021;-40
2023/01/02 04:22:24;;;;;;;14.68;7.72;;;;;;;9.56;100.00;100945.91;5034391;28;20025;-40
2023/01/02 04:24:54;;;;;;;15.52;8.05;;;;;;;9.51;100.00;100945.59;5048524;28;20017;-40
2023/01/02 04:27:24;;;;;;;14.50;7.43;;;;;;;9.40;100.00;100950.31;5031976;28;20025;-40
2023/01/02 04:29:49;;;;;;;9.98;5.85;;;;;;;9.33;100.00;100957.38;5049434;28;20032;-40
2023/01/02 04:32:22;;;;;;;9.10;4.78;;;;;;;9.29;100.00;100963.25;5042860;28;20132;-41
2023/01/02 04:34:48;;;;;;;7.25;4.13;;;;;;;9.22;100.00;100969.31;5028362;28;20055;-41
2023/01/02 04:37:30;;;;;;;7.75;4.15;;;;;;;9.17;100.00;100981.56;5032096;28;20047;-42
2023/01/02 04:39:58;;;;;;;5.88;3.30;;;;;;;9.09;100.00;100973.53;5049056;28;20118;-40
2023/01/02 04:42:24;;;;;;;6.80;3.13;;;;;;;9.09;100.00;100976.22;5039073;28;20025;-39
2023/01/02 04:44:50;;;;;;;4.53;2.83;;;;;;;9.05;100.00;100985.59;5029527;28;20055;-40
2023/01/02 04:47:15;;;;;;;8.23;3.30;;;;;;;9.02;100.00;100987.59;5029852;28;20497;-39
2023/01/02 04:49:40;;;;;;;8.13;3.03;;;;;;;9.02;100.00;100995.66;5029449;28;20026;-40
2023/01/02 04:52:06;;;;;;;8.02;3.53;;;;;;;9.01;100.00;100988.63;5043544;28;20580;-40
2023/01/02 04:54:31;;;;;;;11.95;4.68;;;;;;;9.02;100.00;100994.84;5048294;28;20032;-40
2023/01/02 04:56:56;;;;;;;10.63;4.60;;;;;;;9.01;100.00;100998.53;5047084;28;20131;-40
2023/01/02 04:59:22;;;;;;;11.30;4.45;;;;;;;8.98;100.00;101005.06;5049064;28;20064;-39
2023/01/02 05:01:47;;;;;;;14.15;5.50;;;;;;;9.00;100.00;101008.44;5043624;28;20601;-39
2023/01/02 05:04:12;;;;;;;15.68;5.38;;;;;;;9.00;100.00;101016.50;5049137;28;20399;-38
2023/01/02 05:06:38;;;;;;;11.48;4.95;;;;;;;9.04;100.00;101018.84;5032590;28;20033;-37
2023/01/02 05:09:03;;;;;;;8.82;4.63;;;;;;;9.03;100.00;101044.84;5030312;28;20052;-40
2023/01/02 05:11:28;;;;;;;12.25;5.05;;;;;;;9.00;100.00;101040.66;5029162;28;20052;-39
2023/01/02 05:13:54;;;;;;;10.15;4.63;;;;;;;8.98;100.00;101047.19;5036285;28;20708;-40
2023/01/02 05:16:19;;;;;;;14.55;4.53;;;;;;;8.94;100.00;101057.41;5038097;28;20169;-38
2023/01/02 05:18:44;;;;;;;15.68;4.57;;;;;;;8.97;100.00;101056.25;5029401;28;20491;-38
2023/01/02 05:23:47;;;;;;;17.30;5.85;;;;;;;8.98;100.00;101074.03;5029342;28;20076;-40
2023/01/02 05:23:58;;;;;;;10.60;3.53;;;;;;;8.88;100.00;101079.56;5041964;28;20040;-39
2023/01/02 05:26:24;;;;;;;8.45;2.70;;;;;;;8.82;100.00;101077.53;5049531;28;20021;-40
2023/01/02 05:28:53;;;;;;;16.25;4.45;;;;;;;8.78;100.00;101090.44;5048110;28;20403;-40
2023/01/02 05:31:18;;;;;;;12.57;3.78;;;;;;;8.80;100.00;101087.59;5047780;28;20144;-40
2023/01/02 05:33:43;;;;;;;14.63;4.03;;;;;;;8.76;100.00;101096.97;5026538;28;20444;-39
2023/01/02 05:36:09;;;;;;;11.45;4.15;;;;;;;8.76;100.00;101102.31;5028915;28;20033;-40
2023/01/02 05:38:35;;;;;;;22.95;4.30;;;;;;;8.74;100.00;101105.19;5031179;28;20017;-38
2023/01/02 05:41:05;;;;;;;11.18;3.97;;;;;;;8.72;100.00;101117.09;5028138;28;20047;-44
2023/01/02 05:43:31;;;;;;;12.20;3.05;;;;;;;8.72;100.00;101122.47;5039845;28;20032;-42
2023/01/02 05:45:57;;;;;;;8.35;3.20;;;;;;;8.69;100.00;101123.63;5033070;28;20039;-40
2023/01/02 05:48:22;;;;;;;11.63;2.75;;;;;;;8.71;100.00;101129.66;5034422;28;20396;-40
2023/01/02 05:50:48;;;;;;;10.63;2.22;;;;;;;8.65;100.00;101138.34;5039994;28;20055;-38
2023/01/02 05:53:13;;;;;;;17.52;2.53;;;;;;;8.67;100.00;101156.97;5032549;28;20514;-40
2023/01/02 05:55:38;;;;;;;13.13;2.13;;;;;;;8.59;100.00;101154.28;5032960;28;20645;-39
2023/01/02 05:58:04;;;;;;;12.95;1.60;;;;;;;8.55;100.00;101154.56;5036917;28;20515;-37
2023/01/02 06:00:29;;;;;;;13.13;1.73;;;;;;;8.59;100.00;101154.28;5032513;28;20499;-39
2023/01/02 06:02:54;;;;;;;14.95;2.53;;;;;;;8.52;100.00;101154.91;5030753;28;20025;-40
2023/01/02 06:05:19;;;;;;;10.15;1.70;;;;;;;8.52;100.00;101160.25;5037747;28;20028;-40
2023/01/02 06:07:45;;;;;;;15.32;2.58;;;;;;;8.52;100.00;101159.44;5043330;28;20108;-40
2023/01/02 06:10:10;;;;;;;22.55;2.08;;;;;;;8.51;100.00;101155.06;5050641;28;20060;-38
2023/01/02 06:12:35;;;;;;;16.80;2.30;;;;;;;8.52;100.00;101159.44;5037966;28;20025;-40
2023/01/02 06:15:01;;;;;;;17.98;2.63;;;;;;;8.51;100.00;101163.97;5033904;28;20037;-40
2023/01/02 06:17:26;;;;;;;14.55;2.15;;;;;;;8.52;100.00;101167.47;5054855;28;20017;-39
2023/01/02 06:19:51;;;;;;;20.88;2.45;;;;;;;8.51;100.00;101174.69;5060542;28;20081;-41
2023/01/02 06:22:17;;;;;;;22.83;3.45;;;;;;;8.51;100.00;101177.38;5039191;28;20033;-37
2023/01/02 06:24:42;;;;;;;13.02;2.08;;;;;;;8.51;100.00;101181.91;5032249;28;20040;-38
2023/01/02 06:27:08;;;;;;;17.85;2.88;;;;;;;8.51;100.00;101190.78;5047117;28;20031;-39
2023/01/02 06:29:33;;;;;;;13.82;2.58;;;;;;;8.51;100.00;101188.09;5039636;28;20021;-38
2023/01/02 06:31:58;;;;;;;12.73;2.95;;;;;;;8.50;100.00;101189.09;5034435;28;20068;-39
2023/01/02 06:34:24;;;;;;;13.68;2.60;;;;;;;8.51;100.00;101198.00;5043133;28;20057;-39
2023/01/02 06:36:49;;;;;;;13.48;3.13;;;;;;;8.52;100.00;101205.88;5047447;28;20119;-39
2023/01/02 06:39:14;;;;;;;14.40;3.45;;;;;;;8.50;100.00;101204.34;5045327;28;20045;-39
2023/01/02 06:41:40;;;;;;;11.25;3.17;;;;;;;8.49;100.00;101218.78;5034803;28;20040;-39
2023/01/02 06:44:05;;;;;;;13.15;2.83;;;;;;;8.47;100.00;101218.91;5042559;28;20025;-37
2023/01/02 06:46:30;;;;;;;10.82;3.67;;;;;;;8.41;100.00;101224.91;5040697;28;20483;-37
2023/01/02 06:48:56;;;;;;;7.93;3.55;;;;;;;8.42;100.00;101228.44;5046859;28;20123;-39
2023/01/02 06:51:22;;;;;;;7.95;3.95;;;;;;;8.38;100.00;101227.06;5039917;28;20092;-38
2023/01/02 06:53:48;;;;;;;6.75;4.13;;;;;;;8.41;100.00;101237.50;5031816;28;20029;-38
2023/01/02 06:56:15;;;;;;;9.80;3.70;;;;;;;8.42;100.00;101239.16;5042422;28;20057;-39
2023/01/02 06:58:41;;;;;;;11.68;3.95;;;;;;;8.38;100.00;101240.47;5049381;28;20028;-39
2023/01/02 07:01:11;;;;;;;15.98;4.20;;;;;;;8.35;100.00;101249.66;5043760;28;20021;-37
2023/01/02 07:03:36;;;;;;;11.90;4.30;;;;;;;8.35;100.00;101252.34;5031094;28;20037;-39
2023/01/02 07:06:10;;;;;;;7.28;3.13;;;;;;;8.32;100.00;101263.38;5032262;28;20397;-39
2023/01/02 07:08:36;;;;;;;9.88;3.65;;;;;;;8.32;100.00;101274.09;5029937;28;20060;-39
2023/01/02 07:11:28;;;;;;;10.93;3.72;;;;;;;8.29;100.00;101287.81;5031155;28;20057;-40
2023/01/02 07:13:54;;;;;;;12.85;3.33;;;;;;;8.24;100.00;101285.63;5047278;28;20041;-39
2023/01/02 07:16:20;;;;;;;9.57;3.47;;;;;;;8.26;100.00;101298.88;5037304;28;20064;-40
2023/01/02 07:18:46;;;;;;;15.50;3.53;;;;;;;8.23;100.00;101300.00;5031098;28;20021;-40
2023/01/02 07:21:13;;;;;;;8.75;4.03;;;;;;;8.23;100.00;101304.53;5030864;28;20550;-37
2023/01/02 07:23:38;;;;;;;11.48;4.38;;;;;;;8.25;100.00;101313.28;5032832;28;20033;-40
2023/01/02 07:26:05;;;;;;;11.82;4.70;;;;;;;8.28;100.00;101318.34;5040685;28;20032;-39
2023/01/02 07:28:32;;;;;;;12.63;3.90;;;;;;;8.27;100.00;101316.66;5032724;28;20025;-40
2023/01/02 07:30:59;;;;;;;13.70;4.20;;;;;;;8.26;100.00;101321.16;5038824;28;20049;-40
2023/01/02 07:33:24;;;;;;;7.78;2.95;;;;;;;8.20;100.00;101321.78;5050567;28;20381;-39
2023/01/02 07:35:50;;;;;;;10.50;3.83;;;;;;;8.21;100.00;101333.34;5047950;28;20040;-41
2023/01/02 07:38:15;;;;;;;12.88;2.72;;;;;;;8.14;100.00;101342.00;5029305;28;20455;-39
2023/01/02 07:40:40;;;;;;;9.10;2.08;;;;;;;8.14;100.00;101350.06;5034033;28;20490;-40
2023/01/02 07:43:06;;;;;;;9.05;2.08;;;;;;;8.17;100.00;101356.94;5051962;28;20458;-40
2023/01/02 07:45:33;;;;;;;5.07;1.55;;;;;;;8.14;100.00;101362.63;5050699;28;20032;-40
2023/01/02 07:47:58;;;;;;;9.55;1.67;;;;;;;8.14;100.00;101371.50;5050537;28;20361;-41
2023/01/02 07:50:23;;;;;;;10.20;1.77;;;;;;;8.15;100.00;101366.97;5050706;28;20021;-39
2023/01/02 07:52:49;;;;;;;9.43;1.50;;;;;;;8.09;100.00;101389.88;5050269;28;20021;-39
2023/01/02 07:55:14;;;;;;;8.50;1.40;;;;;;;8.09;100.00;101387.19;5039425;28;20021;-40
2023/01/02 07:57:39;;;;;;;12.30;1.10;;;;;;;8.05;100.00;101385.81;5030490;28;20057;-40
2023/01/02 08:00:05;;;;;;;10.40;1.42;;;;;;;8.00;100.00;101390.78;5030076;28;20033;-41
2023/01/02 08:02:31;;;;;;;5.05;0.77;;;;;;;8.02;100.00;101404.88;5049012;28;20061;-40
2023/01/02 08:04:56;;;;;;;6.40;0.93;;;;;;;8.04;100.00;101405.59;5050423;28;20029;-39
2023/01/02 08:07:22;;;;;;;13.30;1.40;;;;;;;8.05;100.00;101403.75;5037730;28;20095;-40
2023/01/02 08:09:47;;;;;;;7.63;1.08;;;;;;;7.99;100.00;101404.34;5030312;28;20029;-40
2023/01/02 08:12:13;;;;;;;11.77;1.25;;;;;;;8.01;100.00;101403.22;5028636;28;20018;-40
2023/01/02 08:14:38;;;;;;;8.60;1.42;;;;;;;7.98;100.00;101397.28;5031602;28;20088;-40
2023/01/02 08:17:03;;;;;;;10.38;1.45;;;;;;;7.97;100.00;101396.44;5030328;28;20121;-40
2023/01/02 08:19:29;;;;;;;13.75;1.70;;;;;;;7.97;100.00;101401.81;5030407;28;20026;-40
2023/01/02 08:21:54;;;;;;;12.52;1.60;;;;;;;7.96;100.00;101410.84;5032538;28;20029;-40
2023/01/02 08:24:19;;;;;;;12.90;1.63;;;;;;;7.98;100.00;101414.25;5037336;28;20366;-40
2023/01/02 08:26:44;;;;;;;18.95;2.30;;;;;;;7.97;100.00;101417.91;5023570;28;20534;-40
2023/01/02 08:29:10;;;;;;;10.68;2.08;;;;;;;7.93;100.00;101424.56;5026778;28;20032;-39
2023/01/02 08:31:35;;;;;;;8.15;1.52;;;;;;;7.95;100.00;101425.22;5042326;28;20033;-39
2023/01/02 08:34:01;;;;;;;14.68;1.83;;;;;;;7.94;100.00;101434.28;5039707;28;20479;-39
2023/01/02 08:36:26;;;;;;;7.20;1.38;;;;;;;7.96;100.00;101448.38;5042001;28;20428;-40
2023/01/02 08:38:51;;;;;;;14.48;1.20;;;;;;;7.94;100.00;101447.69;5042316;28;20064;-38
2023/01/02 08:41:34;;;;;;;8.63;1.50;;;;;;;7.99;100.00;101448.06;5040605;28;20017;-38
2023/01/02 08:43:59;;;;;;;14.70;1.52;;;;;;;8.02;100.00;101452.28;5042380;28;20143;-39
2023/01/02 08:46:25;;;;;;;8.82;1.27;;;;;;;8.02;100.00;101453.13;5040350;28;20048;-40
2023/01/02 08:48:50;;;;;;;8.38;1.45;;;;;;;8.04;100.00;101461.03;5043838;28;20128;-37
2023/01/02 08:51:15;;;;;;;7.75;1.70;;;;;;;8.07;100.00;101455.38;5043636;28;20021;-38
2023/01/02 08:53:41;;;;;;;12.90;1.52;;;;;;;8.05;100.00;101457.34;5031589;28;20023;-37
2023/01/02 08:56:23;;;;;;;6.03;1.10;;;;;;;8.06;100.00;101459.91;5042970;28;20060;-38
2023/01/02 08:58:53;;;;;;;10.82;1.58;;;;;;;8.05;100.00;101458.19;5041612;28;20033;-39
2023/01/02 09:01:18;;;;;;;9.70;1.50;;;;;;;8.05;100.00;101460.88;5035742;28;20033;-37
2023/01/02 09:03:43;;;;;;;10.77;1.75;;;;;;;8.05;100.00;101457.34;5043819;28;20025;-39
2023/01/02 09:06:09;;;;;;;12.27;1.40;;;;;;;8.08;100.00;101468.63;5042108;28;20037;-41
2023/01/02 09:08:34;;;;;;;15.88;1.98;;;;;;;8.10;100.00;101482.72;5043315;28;20036;-40
2023/01/02 09:11:11;;;;;;;9.85;1.33;;;;;;;8.09;100.00;101483.72;5041797;28;20081;-40
2023/01/02 09:13:37;;;;;;;8.20;1.33;;;;;;;8.10;100.00;101484.56;5043346;28;20071;-39
2023/01/02 09:16:02;;;;;;;8.95;0.95;;;;;;;8.04;100.00;101483.31;5039351;28;20495;-38
2023/01/02 09:18:28;;;;;;;12.80;1.67;;;;;;;8.03;100.00;101492.38;5041219;28;20396;-38
2023/01/02 09:20:53;;;;;;;9.68;1.50;;;;;;;8.03;100.00;101486.13;5044612;28;20056;-39
2023/01/02 09:23:18;;;;;;;8.02;1.27;;;;;;;8.05;100.00;101485.00;5047620;28;20029;-39
2023/01/02 09:25:43;;;;;;;12.88;1.40;;;;;;;8.07;100.00;101496.41;5044152;28;20082;-36
2023/01/02 09:28:09;;;;;;;7.80;1.35;;;;;;;8.07;100.00;101506.31;5036668;28;21552;-40
2023/01/02 09:30:35;;;;;;;8.48;1.60;;;;;;;8.03;100.00;101484.31;5039595;28;20063;-38
2023/01/02 09:33:00;;;;;;;8.30;1.40;;;;;;;8.03;100.00;101481.66;5047257;28;20546;-37
2023/01/02 09:35:25;;;;;;;13.15;1.80;;;;;;;8.06;100.00;101472.47;5045560;28;20029;-37
2023/01/02 09:37:51;;;;;;;14.75;1.73;;;;;;;8.11;100.00;101468.34;5044023;28;20040;-38
2023/01/02 09:40:16;;;;;;;5.85;1.20;;;;;;;8.16;100.00;101488.47;5046391;28;20021;-38
2023/01/02 09:42:43;;;;;;;8.57;1.35;;;;;;;8.26;100.00;101482.06;5045912;28;20032;-37
2023/01/02 09:45:09;;;;;;;11.25;1.63;;;;;;;8.32;100.00;101485.97;5046097;28;20033;-39
2023/01/02 09:47:35;;;;;;;8.30;1.52;;;;;;;8.38;100.00;101495.25;5045737;28;20382;-39
2023/01/02 09:50:04;;;;;;;10.73;1.42;;;;;;;8.50;100.00;101500.25;5045394;28;20653;-39
2023/01/02 09:52:29;;;;;;;8.65;1.60;;;;;;;8.71;100.00;101507.19;5045595;28;20048;-38
2023/01/02 09:54:55;;;;;;;5.05;1.25;;;;;;;8.74;100.00;101517.59;5045153;28;20036;-39
2023/01/02 09:57:27;;;;;;;9.68;1.40;;;;;;;8.72;100.00;101514.25;5044896;28;20441;-36
2023/01/02 10:00:19;;;;;;;14.27;3.42;;;;;;;8.82;100.00;101515.03;5043682;28;20036;-38
2023/01/02 10:02:54;;;;;;;8.82;1.42;;;;;;;8.84;100.00;101523.75;5045225;28;20036;-40
2023/01/02 10:05:40;;;;;;;10.60;1.65;;;;;;;8.90;100.00;101538.38;5043469;28;20479;-39
2023/01/02 10:08:33;;;;;;;15.95;1.85;;;;;;;8.83;100.00;101546.22;5047435;28;20476;-40
2023/01/02 10:11:16;;;;;;;13.57;1.88;;;;;;;8.86;100.00;101543.22;5046151;28;20060;-40
2023/01/02 10:14:04;;;;;;;5.93;1.48;;;;;;;8.89;100.00;101544.75;5045899;28;20033;-40
2023/01/02 10:16:32;;;;;;;5.68;1.25;;;;;;;8.82;100.00;101535.63;5041841;28;20060;-40
2023/01/02 10:19:00;;;;;;;8.63;1.45;;;;;;;8.82;100.00;101530.25;5041612;28;20098;-39
2023/01/02 10:21:29;;;;;;;10.50;1.75;;;;;;;8.80;100.00;101522.38;5044632;28;20044;-40
2023/01/02 10:24:10;;;;;;;9.82;1.65;;;;;;;8.92;100.00;101523.81;5044680;28;20155;-40
2023/01/02 10:26:37;;;;;;;10.25;1.40;;;;;;;8.81;100.00;101524.06;5044725;28;20098;-40
2023/01/02 10:29:16;;;;;;;13.30;2.17;;;;;;;8.80;100.00;101538.47;5045266;28;20116;-40
2023/01/02 10:31:54;;;;;;;14.48;2.10;;;;;;;8.97;100.00;101550.19;5044651;28;20147;-37
2023/01/02 10:34:21;;;;;;;11.15;1.25;;;;;;;8.90;100.00;101533.00;5044177;28;20399;-38
2023/01/02 10:36:47;;;;;;;14.38;2.55;;;;;;;8.90;100.00;101523.16;5044369;28;20018;-39
2023/01/02 10:39:17;;;;;;;11.30;1.77;;;;;;;8.97;100.00;101539.47;5042681;28;20112;-39
2023/01/02 10:41:48;;;;;;;11.10;1.40;;;;;;;9.13;100.00;101541.44;5041817;28;20487;-38
2023/01/02 10:44:20;;;;;;;9.23;1.67;;;;;;;9.26;100.00;101543.72;5043055;28;20123;-38
2023/01/02 10:46:45;;;;;;;8.93;1.58;;;;;;;9.34;100.00;101538.41;5044211;28;20033;-39
2023/01/02 10:49:11;;;;;;;8.90;1.55;;;;;;;9.41;100.00;101556.44;5044093;28;20032;-40
2023/01/02 10:51:37;;;;;;;11.85;1.70;;;;;;;9.55;100.00;101538.91;5044255;28;20208;-36
2023/01/02 10:54:06;;;;;;;15.75;1.98;;;;;;;9.74;100.00;101537.84;5025602;28;20083;-39
2023/01/02 10:56:33;;;;;;;15.60;2.03;;;;;;;9.75;100.00;101536.84;5044969;28;20098;-40
2023/01/02 10:58:59;;;;;;;7.22;1.35;;;;;;;9.59;100.00;101528.69;5041241;28;20603;-39
2023/01/02 11:01:24;;;;;;;9.95;1.50;;;;;;;9.57;100.00;101539.59;5031604;28;20124;-41
2023/01/02 11:03:52;;;;;;;10.30;1.42;;;;;;;9.51;100.00;101542.91;5044132;28;20177;-40
2023/01/02 11:06:30;;;;;;;8.48;1.88;;;;;;;9.34;100.00;101551.84;5043908;28;20032;-40
2023/01/02 11:09:12;;;;;;;12.90;1.77;;;;;;;9.32;100.00;101553.84;5044649;28;20068;-39
2023/01/02 11:11:48;;;;;;;12.48;1.65;;;;;;;9.29;100.00;101559.53;5044097;28;20047;-38
2023/01/02 11:14:13;;;;;;;8.35;1.75;;;;;;;9.28;100.00;101573.97;5043970;28;20488;-40
2023/01/02 11:16:39;;;;;;;10.82;1.40;;;;;;;9.22;100.00;101576.28;5042271;28;20067;-38
2023/01/02 11:19:06;;;;;;;11.13;1.83;;;;;;;9.22;100.00;101586.19;5041649;28;20032;-38
2023/01/02 11:21:33;;;;;;;8.47;1.47;;;;;;;9.24;100.00;101584.16;5044167;28;20036;-39
2023/01/02 11:24:03;;;;;;;12.90;1.65;;;;;;;9.30;100.00;101583.56;5044049;28;20116;-40